sensor_id;sensor_type;location;lat;lon;timestamp;P1;durP1;ratioP1;P2;durP2;ratioP2
70150;SDS011;57517;43.562;19.540;2022-08-19T00:01:36;15.35;;;9.65;;
70150;SDS011;57517;43.562;19.540;2022-08-19T00:04:04;13.75;;;9.57;;
70150;SDS011;57517;43.562;19.540;2022-08-19T00:06:33;15.43;;;9.68;;
70150;SDS011;57517;43.562;19.540;2022-08-19T00:09:00;17.95;;;9.20;;
70150;SDS011;57517;43.562;19.540;2022-08-19T00:11:26;13.35;;;9.10;;
70150;SDS011;57517;43.562;19.540;2022-08-19T00:13:55;13.40;;;9.27;;
70150;SDS011;57517;43.562;19.540;2022-08-19T00:16:22;15.23;;;9.43;;
70150;SDS011;57517;43.562;19.540;2022-08-19T00:18:49;14.90;;;9.93;;
70150;SDS011;57517;43.562;19.540;2022-08-19T00:21:15;13.10;;;9.65;;
70150;SDS011;57517;43.562;19.540;2022-08-19T00:23:41;15.35;;;9.93;;
70150;SDS011;57517;43.562;19.540;2022-08-19T00:26:08;15.18;;;9.60;;
70150;SDS011;57517;43.562;19.540;2022-08-19T00:28:35;14.57;;;9.00;;
70150;SDS011;57517;43.562;19.540;2022-08-19T00:31:05;15.75;;;10.40;;
70150;SDS011;57517;43.562;19.540;2022-08-19T00:33:32;14.07;;;10.00;;
70150;SDS011;57517;43.562;19.540;2022-08-19T00:35:59;12.70;;;9.27;;
70150;SDS011;57517;43.562;19.540;2022-08-19T00:38:31;17.77;;;10.98;;
70150;SDS011;57517;43.562;19.540;2022-08-19T00:40:57;12.80;;;9.43;;
70150;SDS011;57517;43.562;19.540;2022-08-19T00:43:24;20.48;;;10.63;;
70150;SDS011;57517;43.562;19.540;2022-08-19T00:45:51;15.57;;;9.52;;
70150;SDS011;57517;43.562;19.540;2022-08-19T00:48:18;14.45;;;9.55;;
70150;SDS011;57517;43.562;19.540;2022-08-19T00:50:45;14.05;;;9.55;;
70150;SDS011;57517;43.562;19.540;2022-08-19T00:53:12;12.45;;;9.88;;
70150;SDS011;57517;43.562;19.540;2022-08-19T00:55:44;16.50;;;10.23;;
70150;SDS011;57517;43.562;19.540;2022-08-19T00:58:13;11.85;;;8.77;;
70150;SDS011;57517;43.562;19.540;2022-08-19T01:00:44;14.75;;;9.55;;
70150;SDS011;57517;43.562;19.540;2022-08-19T01:03:12;16.52;;;9.77;;
70150;SDS011;57517;43.562;19.540;2022-08-19T01:05:41;14.52;;;9.82;;
70150;SDS011;57517;43.562;19.540;2022-08-19T01:08:08;21.10;;;10.02;;
70150;SDS011;57517;43.562;19.540;2022-08-19T01:10:48;14.88;;;9.52;;
70150;SDS011;57517;43.562;19.540;2022-08-19T01:13:19;15.63;;;9.95;;
70150;SDS011;57517;43.562;19.540;2022-08-19T01:15:58;14.07;;;9.90;;
70150;SDS011;57517;43.562;19.540;2022-08-19T01:18:28;13.88;;;10.18;;
70150;SDS011;57517;43.562;19.540;2022-08-19T01:20:56;14.43;;;10.35;;
70150;SDS011;57517;43.562;19.540;2022-08-19T01:23:27;17.48;;;9.75;;
70150;SDS011;57517;43.562;19.540;2022-08-19T01:26:07;13.68;;;10.30;;
70150;SDS011;57517;43.562;19.540;2022-08-19T01:28:40;14.93;;;9.68;;
70150;SDS011;57517;43.562;19.540;2022-08-19T01:31:10;16.17;;;10.68;;
70150;SDS011;57517;43.562;19.540;2022-08-19T01:33:39;16.75;;;10.48;;
70150;SDS011;57517;43.562;19.540;2022-08-19T01:36:11;13.70;;;9.98;;
70150;SDS011;57517;43.562;19.540;2022-08-19T01:38:47;14.55;;;9.80;;
70150;SDS011;57517;43.562;19.540;2022-08-19T01:41:14;15.05;;;9.23;;
70150;SDS011;57517;43.562;19.540;2022-08-19T01:43:42;16.83;;;10.32;;
70150;SDS011;57517;43.562;19.540;2022-08-19T01:46:08;13.50;;;9.82;;
70150;SDS011;57517;43.562;19.540;2022-08-19T01:48:35;15.63;;;10.00;;
70150;SDS011;57517;43.562;19.540;2022-08-19T01:51:03;16.33;;;9.73;;
70150;SDS011;57517;43.562;19.540;2022-08-19T01:53:30;17.80;;;10.13;;
70150;SDS011;57517;43.562;19.540;2022-08-19T01:55:55;17.20;;;10.32;;
70150;SDS011;57517;43.562;19.540;2022-08-19T01:58:23;12.38;;;9.57;;
70150;SDS011;57517;43.562;19.540;2022-08-19T02:00:53;15.65;;;10.95;;
70150;SDS011;57517;43.562;19.540;2022-08-19T02:03:18;15.85;;;10.40;;
70150;SDS011;57517;43.562;19.540;2022-08-19T02:05:44;15.85;;;10.70;;
70150;SDS011;57517;43.562;19.540;2022-08-19T02:08:10;13.88;;;9.40;;
70150;SDS011;57517;43.562;19.540;2022-08-19T02:10:41;17.30;;;10.25;;
70150;SDS011;57517;43.562;19.540;2022-08-19T02:13:08;14.65;;;10.13;;
70150;SDS011;57517;43.562;19.540;2022-08-19T02:15:35;15.60;;;9.98;;
70150;SDS011;57517;43.562;19.540;2022-08-19T02:18:01;14.02;;;9.25;;
70150;SDS011;57517;43.562;19.540;2022-08-19T02:20:27;14.77;;;9.70;;
70150;SDS011;57517;43.562;19.540;2022-08-19T02:22:52;14.43;;;9.52;;
70150;SDS011;57517;43.562;19.540;2022-08-19T02:25:18;13.82;;;9.65;;
70150;SDS011;57517;43.562;19.540;2022-08-19T02:27:44;14.60;;;9.60;;
70150;SDS011;57517;43.562;19.540;2022-08-19T02:30:12;13.50;;;9.30;;
70150;SDS011;57517;43.562;19.540;2022-08-19T02:32:41;15.63;;;10.25;;
70150;SDS011;57517;43.562;19.540;2022-08-19T02:35:07;15.70;;;10.27;;
70150;SDS011;57517;43.562;19.540;2022-08-19T02:37:33;15.70;;;11.13;;
70150;SDS011;57517;43.562;19.540;2022-08-19T02:40:18;18.83;;;12.48;;
70150;SDS011;57517;43.562;19.540;2022-08-19T02:42:44;15.23;;;9.63;;
70150;SDS011;57517;43.562;19.540;2022-08-19T02:45:11;13.88;;;10.02;;
70150;SDS011;57517;43.562;19.540;2022-08-19T02:47:38;15.73;;;10.32;;
70150;SDS011;57517;43.562;19.540;2022-08-19T02:50:04;14.07;;;9.90;;
70150;SDS011;57517;43.562;19.540;2022-08-19T02:52:31;13.65;;;10.57;;
70150;SDS011;57517;43.562;19.540;2022-08-19T02:54:58;14.35;;;10.70;;
70150;SDS011;57517;43.562;19.540;2022-08-19T02:57:25;16.02;;;11.10;;
70150;SDS011;57517;43.562;19.540;2022-08-19T02:59:51;13.48;;;11.07;;
70150;SDS011;57517;43.562;19.540;2022-08-19T03:02:17;18.85;;;11.35;;
70150;SDS011;57517;43.562;19.540;2022-08-19T03:04:43;16.48;;;11.25;;
70150;SDS011;57517;43.562;19.540;2022-08-19T03:07:09;15.35;;;10.60;;
70150;SDS011;57517;43.562;19.540;2022-08-19T03:09:39;14.20;;;10.82;;
70150;SDS011;57517;43.562;19.540;2022-08-19T03:12:05;18.50;;;12.32;;
70150;SDS011;57517;43.562;19.540;2022-08-19T03:14:32;16.10;;;11.60;;
70150;SDS011;57517;43.562;19.540;2022-08-19T03:16:58;14.30;;;10.60;;
70150;SDS011;57517;43.562;19.540;2022-08-19T03:19:25;13.48;;;10.48;;
70150;SDS011;57517;43.562;19.540;2022-08-19T03:21:52;15.32;;;10.32;;
70150;SDS011;57517;43.562;19.540;2022-08-19T03:24:18;15.50;;;10.05;;
70150;SDS011;57517;43.562;19.540;2022-08-19T03:26:49;14.20;;;10.18;;
70150;SDS011;57517;43.562;19.540;2022-08-19T03:29:17;16.38;;;11.43;;
70150;SDS011;57517;43.562;19.540;2022-08-19T03:31:44;16.10;;;11.50;;
70150;SDS011;57517;43.562;19.540;2022-08-19T03:34:12;18.50;;;10.70;;
70150;SDS011;57517;43.562;19.540;2022-08-19T03:36:39;17.40;;;11.27;;
70150;SDS011;57517;43.562;19.540;2022-08-19T03:39:05;15.88;;;11.15;;
70150;SDS011;57517;43.562;19.540;2022-08-19T03:41:36;13.90;;;10.25;;
70150;SDS011;57517;43.562;19.540;2022-08-19T03:44:03;14.63;;;10.52;;
70150;SDS011;57517;43.562;19.540;2022-08-19T03:46:33;14.75;;;10.50;;
70150;SDS011;57517;43.562;19.540;2022-08-19T03:49:00;15.20;;;10.45;;
70150;SDS011;57517;43.562;19.540;2022-08-19T03:51:35;14.45;;;10.48;;
70150;SDS011;57517;43.562;19.540;2022-08-19T03:54:03;14.57;;;10.73;;
70150;SDS011;57517;43.562;19.540;2022-08-19T03:56:33;17.38;;;11.25;;
70150;SDS011;57517;43.562;19.540;2022-08-19T03:59:00;14.25;;;10.63;;
70150;SDS011;57517;43.562;19.540;2022-08-19T04:01:27;12.68;;;10.18;;
70150;SDS011;57517;43.562;19.540;2022-08-19T04:03:53;16.73;;;10.60;;
70150;SDS011;57517;43.562;19.540;2022-08-19T04:08:49;13.40;;;10.13;;
70150;SDS011;57517;43.562;19.540;2022-08-19T04:11:17;16.60;;;10.80;;
70150;SDS011;57517;43.562;19.540;2022-08-19T04:13:48;14.18;;;10.45;;
70150;SDS011;57517;43.562;19.540;2022-08-19T04:16:16;14.68;;;9.80;;
70150;SDS011;57517;43.562;19.540;2022-08-19T04:18:43;13.70;;;9.50;;
70150;SDS011;57517;43.562;19.540;2022-08-19T04:21:14;12.95;;;9.85;;
70150;SDS011;57517;43.562;19.540;2022-08-19T04:23:45;14.13;;;9.90;;
70150;SDS011;57517;43.562;19.540;2022-08-19T04:26:15;15.73;;;10.60;;
70150;SDS011;57517;43.562;19.540;2022-08-19T04:28:43;17.52;;;11.10;;
70150;SDS011;57517;43.562;19.540;2022-08-19T04:31:16;15.63;;;11.35;;
70150;SDS011;57517;43.562;19.540;2022-08-19T04:33:45;16.15;;;11.27;;
70150;SDS011;57517;43.562;19.540;2022-08-19T04:36:18;20.45;;;11.20;;
70150;SDS011;57517;43.562;19.540;2022-08-19T04:38:50;16.38;;;12.23;;
70150;SDS011;57517;43.562;19.540;2022-08-19T04:41:22;17.05;;;11.60;;
70150;SDS011;57517;43.562;19.540;2022-08-19T04:44:07;14.73;;;10.63;;
70150;SDS011;57517;43.562;19.540;2022-08-19T04:46:33;17.17;;;11.10;;
70150;SDS011;57517;43.562;19.540;2022-08-19T04:49:00;17.80;;;11.18;;
70150;SDS011;57517;43.562;19.540;2022-08-19T04:51:29;19.75;;;12.70;;
70150;SDS011;57517;43.562;19.540;2022-08-19T04:53:56;20.52;;;13.48;;
70150;SDS011;57517;43.562;19.540;2022-08-19T04:56:22;15.25;;;11.98;;
70150;SDS011;57517;43.562;19.540;2022-08-19T04:58:51;19.38;;;11.57;;
70150;SDS011;57517;43.562;19.540;2022-08-19T05:01:19;18.67;;;13.60;;
70150;SDS011;57517;43.562;19.540;2022-08-19T05:03:47;15.80;;;10.93;;
70150;SDS011;57517;43.562;19.540;2022-08-19T05:06:13;20.67;;;11.02;;
70150;SDS011;57517;43.562;19.540;2022-08-19T05:08:41;20.45;;;11.05;;
70150;SDS011;57517;43.562;19.540;2022-08-19T05:11:18;15.82;;;10.57;;
70150;SDS011;57517;43.562;19.540;2022-08-19T05:13:46;15.10;;;11.40;;
70150;SDS011;57517;43.562;19.540;2022-08-19T05:16:14;17.48;;;10.65;;
70150;SDS011;57517;43.562;19.540;2022-08-19T05:18:42;15.32;;;10.93;;
70150;SDS011;57517;43.562;19.540;2022-08-19T05:24:11;18.45;;;12.82;;
70150;SDS011;57517;43.562;19.540;2022-08-19T05:26:39;15.15;;;11.15;;
70150;SDS011;57517;43.562;19.540;2022-08-19T05:29:08;26.63;;;20.45;;
70150;SDS011;57517;43.562;19.540;2022-08-19T05:31:35;20.77;;;15.95;;
70150;SDS011;57517;43.562;19.540;2022-08-19T05:34:03;18.08;;;13.55;;
70150;SDS011;57517;43.562;19.540;2022-08-19T05:36:34;18.27;;;13.77;;
70150;SDS011;57517;43.562;19.540;2022-08-19T05:39:05;19.95;;;13.98;;
70150;SDS011;57517;43.562;19.540;2022-08-19T05:41:32;19.20;;;13.88;;
70150;SDS011;57517;43.562;19.540;2022-08-19T05:44:01;16.08;;;12.80;;
70150;SDS011;57517;43.562;19.540;2022-08-19T05:46:31;22.08;;;18.08;;
70150;SDS011;57517;43.562;19.540;2022-08-19T05:48:57;17.13;;;14.80;;
70150;SDS011;57517;43.562;19.540;2022-08-19T05:51:24;16.33;;;12.93;;
70150;SDS011;57517;43.562;19.540;2022-08-19T05:53:50;16.95;;;12.45;;
70150;SDS011;57517;43.562;19.540;2022-08-19T05:56:16;15.70;;;12.57;;
70150;SDS011;57517;43.562;19.540;2022-08-19T05:58:43;19.00;;;13.25;;
70150;SDS011;57517;43.562;19.540;2022-08-19T06:01:17;18.02;;;14.10;;
70150;SDS011;57517;43.562;19.540;2022-08-19T06:03:43;17.83;;;14.82;;
70150;SDS011;57517;43.562;19.540;2022-08-19T06:06:10;57.25;;;51.55;;
70150;SDS011;57517;43.562;19.540;2022-08-19T06:08:38;22.48;;;18.83;;
70150;SDS011;57517;43.562;19.540;2022-08-19T06:11:14;20.23;;;14.73;;
70150;SDS011;57517;43.562;19.540;2022-08-19T06:13:57;29.00;;;24.75;;
70150;SDS011;57517;43.562;19.540;2022-08-19T06:16:25;23.70;;;19.70;;
70150;SDS011;57517;43.562;19.540;2022-08-19T06:18:52;37.70;;;34.08;;
70150;SDS011;57517;43.562;19.540;2022-08-19T06:21:19;23.40;;;19.67;;
70150;SDS011;57517;43.562;19.540;2022-08-19T06:23:47;24.67;;;21.73;;
70150;SDS011;57517;43.562;19.540;2022-08-19T06:26:14;49.83;;;44.55;;
70150;SDS011;57517;43.562;19.540;2022-08-19T06:28:41;29.55;;;21.80;;
70150;SDS011;57517;43.562;19.540;2022-08-19T06:31:11;23.20;;;17.52;;
70150;SDS011;57517;43.562;19.540;2022-08-19T06:33:42;29.52;;;24.55;;
70150;SDS011;57517;43.562;19.540;2022-08-19T06:36:30;28.60;;;24.88;;
70150;SDS011;57517;43.562;19.540;2022-08-19T06:39:03;19.42;;;16.27;;
70150;SDS011;57517;43.562;19.540;2022-08-19T06:41:31;23.17;;;20.70;;
70150;SDS011;57517;43.562;19.540;2022-08-19T06:44:00;17.63;;;14.60;;
70150;SDS011;57517;43.562;19.540;2022-08-19T06:46:26;21.45;;;12.07;;
70150;SDS011;57517;43.562;19.540;2022-08-19T06:48:52;27.48;;;14.10;;
70150;SDS011;57517;43.562;19.540;2022-08-19T06:51:19;14.77;;;11.40;;
70150;SDS011;57517;43.562;19.540;2022-08-19T06:53:47;12.65;;;10.68;;
70150;SDS011;57517;43.562;19.540;2022-08-19T06:56:15;14.18;;;11.00;;
70150;SDS011;57517;43.562;19.540;2022-08-19T06:58:42;13.35;;;10.45;;
70150;SDS011;57517;43.562;19.540;2022-08-19T07:01:08;13.10;;;11.32;;
70150;SDS011;57517;43.562;19.540;2022-08-19T07:03:35;13.43;;;10.40;;
70150;SDS011;57517;43.562;19.540;2022-08-19T07:06:03;15.32;;;11.60;;
70150;SDS011;57517;43.562;19.540;2022-08-19T07:08:30;15.98;;;10.93;;
70150;SDS011;57517;43.562;19.540;2022-08-19T07:10:56;13.80;;;10.23;;
70150;SDS011;57517;43.562;19.540;2022-08-19T07:13:22;13.15;;;10.57;;
70150;SDS011;57517;43.562;19.540;2022-08-19T07:15:48;14.80;;;13.23;;
70150;SDS011;57517;43.562;19.540;2022-08-19T07:18:16;15.35;;;11.18;;
70150;SDS011;57517;43.562;19.540;2022-08-19T07:20:43;12.50;;;11.20;;
70150;SDS011;57517;43.562;19.540;2022-08-19T07:23:09;18.33;;;12.68;;
70150;SDS011;57517;43.562;19.540;2022-08-19T07:25:36;18.50;;;12.15;;
70150;SDS011;57517;43.562;19.540;2022-08-19T07:28:02;15.85;;;14.23;;
70150;SDS011;57517;43.562;19.540;2022-08-19T07:30:28;21.65;;;19.50;;
70150;SDS011;57517;43.562;19.540;2022-08-19T07:32:54;18.52;;;16.48;;
70150;SDS011;57517;43.562;19.540;2022-08-19T07:35:21;14.15;;;12.55;;
70150;SDS011;57517;43.562;19.540;2022-08-19T07:37:48;21.05;;;18.23;;
70150;SDS011;57517;43.562;19.540;2022-08-19T07:40:14;16.48;;;12.13;;
70150;SDS011;57517;43.562;19.540;2022-08-19T07:42:40;12.65;;;11.23;;
70150;SDS011;57517;43.562;19.540;2022-08-19T07:45:08;15.73;;;11.77;;
70150;SDS011;57517;43.562;19.540;2022-08-19T07:47:35;15.80;;;11.25;;
70150;SDS011;57517;43.562;19.540;2022-08-19T07:50:01;16.55;;;14.98;;
70150;SDS011;57517;43.562;19.540;2022-08-19T07:52:29;13.65;;;12.27;;
70150;SDS011;57517;43.562;19.540;2022-08-19T07:54:55;13.70;;;12.15;;
70150;SDS011;57517;43.562;19.540;2022-08-19T07:57:22;13.80;;;11.32;;
70150;SDS011;57517;43.562;19.540;2022-08-19T07:59:48;13.95;;;12.27;;
70150;SDS011;57517;43.562;19.540;2022-08-19T08:02:13;13.85;;;11.55;;
70150;SDS011;57517;43.562;19.540;2022-08-19T08:04:39;19.30;;;17.20;;
70150;SDS011;57517;43.562;19.540;2022-08-19T08:07:23;13.75;;;12.35;;
70150;SDS011;57517;43.562;19.540;2022-08-19T08:10:08;15.63;;;11.07;;
70150;SDS011;57517;43.562;19.540;2022-08-19T08:12:35;16.52;;;10.98;;
70150;SDS011;57517;43.562;19.540;2022-08-19T08:15:07;12.07;;;9.88;;
70150;SDS011;57517;43.562;19.540;2022-08-19T08:17:36;25.92;;;23.20;;
70150;SDS011;57517;43.562;19.540;2022-08-19T08:20:04;19.13;;;16.33;;
70150;SDS011;57517;43.562;19.540;2022-08-19T08:22:34;19.42;;;17.33;;
70150;SDS011;57517;43.562;19.540;2022-08-19T08:25:20;17.88;;;13.98;;
70150;SDS011;57517;43.562;19.540;2022-08-19T08:27:48;16.77;;;12.77;;
70150;SDS011;57517;43.562;19.540;2022-08-19T08:30:22;26.13;;;21.05;;
70150;SDS011;57517;43.562;19.540;2022-08-19T08:32:49;24.88;;;17.33;;
70150;SDS011;57517;43.562;19.540;2022-08-19T08:35:17;17.88;;;15.48;;
70150;SDS011;57517;43.562;19.540;2022-08-19T08:37:44;20.55;;;17.08;;
70150;SDS011;57517;43.562;19.540;2022-08-19T08:40:20;43.97;;;35.25;;
70150;SDS011;57517;43.562;19.540;2022-08-19T08:43:05;38.90;;;34.63;;
70150;SDS011;57517;43.562;19.540;2022-08-19T08:45:38;47.83;;;35.42;;
70150;SDS011;57517;43.562;19.540;2022-08-19T08:48:29;29.98;;;23.63;;
70150;SDS011;57517;43.562;19.540;2022-08-19T08:51:07;22.67;;;15.05;;
70150;SDS011;57517;43.562;19.540;2022-08-19T08:53:36;16.33;;;10.85;;
70150;SDS011;57517;43.562;19.540;2022-08-19T08:56:03;11.10;;;8.23;;
70150;SDS011;57517;43.562;19.540;2022-08-19T08:58:41;13.98;;;8.57;;
70150;SDS011;57517;43.562;19.540;2022-08-19T09:01:24;15.23;;;9.88;;
70150;SDS011;57517;43.562;19.540;2022-08-19T09:03:51;13.70;;;9.18;;
70150;SDS011;57517;43.562;19.540;2022-08-19T09:14:39;18.10;;;11.90;;
70150;SDS011;57517;43.562;19.540;2022-08-19T09:17:17;16.92;;;9.75;;
70150;SDS011;57517;43.562;19.540;2022-08-19T09:19:53;13.85;;;8.80;;
70150;SDS011;57517;43.562;19.540;2022-08-19T09:22:21;13.90;;;8.23;;
70150;SDS011;57517;43.562;19.540;2022-08-19T09:24:50;13.48;;;8.32;;
70150;SDS011;57517;43.562;19.540;2022-08-19T09:27:17;15.85;;;8.15;;
70150;SDS011;57517;43.562;19.540;2022-08-19T09:29:45;11.13;;;8.15;;
70150;SDS011;57517;43.562;19.540;2022-08-19T09:32:13;13.48;;;8.82;;
70150;SDS011;57517;43.562;19.540;2022-08-19T09:34:39;16.50;;;8.88;;
70150;SDS011;57517;43.562;19.540;2022-08-19T09:37:06;15.55;;;8.95;;
70150;SDS011;57517;43.562;19.540;2022-08-19T09:39:32;17.15;;;8.90;;
70150;SDS011;57517;43.562;19.540;2022-08-19T09:41:58;15.20;;;8.13;;
70150;SDS011;57517;43.562;19.540;2022-08-19T09:44:24;11.95;;;8.40;;
70150;SDS011;57517;43.562;19.540;2022-08-19T09:46:50;15.00;;;7.72;;
70150;SDS011;57517;43.562;19.540;2022-08-19T09:49:17;12.60;;;8.32;;
70150;SDS011;57517;43.562;19.540;2022-08-19T09:51:44;17.98;;;12.00;;
70150;SDS011;57517;43.562;19.540;2022-08-19T09:54:09;15.65;;;8.18;;
70150;SDS011;57517;43.562;19.540;2022-08-19T09:56:35;13.85;;;8.38;;
70150;SDS011;57517;43.562;19.540;2022-08-19T09:59:02;14.75;;;8.07;;
70150;SDS011;57517;43.562;19.540;2022-08-19T10:01:29;16.38;;;13.13;;
70150;SDS011;57517;43.562;19.540;2022-08-19T10:03:58;15.57;;;9.95;;
70150;SDS011;57517;43.562;19.540;2022-08-19T10:06:27;13.90;;;8.98;;
70150;SDS011;57517;43.562;19.540;2022-08-19T10:08:58;14.18;;;8.43;;
70150;SDS011;57517;43.562;19.540;2022-08-19T10:11:25;16.73;;;9.35;;
70150;SDS011;57517;43.562;19.540;2022-08-19T10:13:51;17.65;;;9.60;;
70150;SDS011;57517;43.562;19.540;2022-08-19T10:16:20;14.60;;;10.52;;
70150;SDS011;57517;43.562;19.540;2022-08-19T10:18:47;13.82;;;9.48;;
70150;SDS011;57517;43.562;19.540;2022-08-19T10:21:18;14.52;;;8.80;;
70150;SDS011;57517;43.562;19.540;2022-08-19T10:23:45;14.32;;;9.63;;
70150;SDS011;57517;43.562;19.540;2022-08-19T10:26:14;17.45;;;10.75;;
70150;SDS011;57517;43.562;19.540;2022-08-19T10:28:46;17.95;;;10.73;;
70150;SDS011;57517;43.562;19.540;2022-08-19T10:31:13;16.25;;;9.50;;
70150;SDS011;57517;43.562;19.540;2022-08-19T10:33:42;17.15;;;10.05;;
70150;SDS011;57517;43.562;19.540;2022-08-19T10:36:10;15.63;;;9.10;;
70150;SDS011;57517;43.562;19.540;2022-08-19T10:38:42;12.95;;;10.10;;
70150;SDS011;57517;43.562;19.540;2022-08-19T10:41:11;21.17;;;14.85;;
70150;SDS011;57517;43.562;19.540;2022-08-19T10:43:41;17.65;;;13.32;;
70150;SDS011;57517;43.562;19.540;2022-08-19T10:46:08;14.35;;;9.90;;
70150;SDS011;57517;43.562;19.540;2022-08-19T10:48:35;13.73;;;10.50;;
70150;SDS011;57517;43.562;19.540;2022-08-19T10:51:02;21.30;;;13.18;;
70150;SDS011;57517;43.562;19.540;2022-08-19T10:53:47;18.80;;;11.55;;
70150;SDS011;57517;43.562;19.540;2022-08-19T10:56:13;18.05;;;10.05;;
70150;SDS011;57517;43.562;19.540;2022-08-19T10:58:58;17.52;;;9.68;;
70150;SDS011;57517;43.562;19.540;2022-08-19T11:01:25;15.60;;;10.77;;
70150;SDS011;57517;43.562;19.540;2022-08-19T11:03:51;17.15;;;10.63;;
70150;SDS011;57517;43.562;19.540;2022-08-19T11:06:18;24.40;;;12.15;;
70150;SDS011;57517;43.562;19.540;2022-08-19T11:08:44;21.52;;;11.30;;
70150;SDS011;57517;43.562;19.540;2022-08-19T11:11:10;16.92;;;10.27;;
70150;SDS011;57517;43.562;19.540;2022-08-19T11:13:37;14.75;;;10.05;;
70150;SDS011;57517;43.562;19.540;2022-08-19T11:16:23;18.45;;;10.20;;
70150;SDS011;57517;43.562;19.540;2022-08-19T11:18:53;19.13;;;10.93;;
70150;SDS011;57517;43.562;19.540;2022-08-19T11:21:27;21.35;;;10.65;;
70150;SDS011;57517;43.562;19.540;2022-08-19T11:23:58;20.08;;;12.32;;
70150;SDS011;57517;43.562;19.540;2022-08-19T11:26:27;26.10;;;14.85;;
70150;SDS011;57517;43.562;19.540;2022-08-19T11:28:54;20.17;;;14.50;;
70150;SDS011;57517;43.562;19.540;2022-08-19T11:31:22;24.83;;;13.63;;
70150;SDS011;57517;43.562;19.540;2022-08-19T11:33:49;21.92;;;12.88;;
70150;SDS011;57517;43.562;19.540;2022-08-19T11:36:16;21.27;;;12.65;;
70150;SDS011;57517;43.562;19.540;2022-08-19T11:38:44;21.02;;;12.05;;
70150;SDS011;57517;43.562;19.540;2022-08-19T11:41:13;26.92;;;12.30;;
70150;SDS011;57517;43.562;19.540;2022-08-19T11:43:41;19.65;;;11.63;;
70150;SDS011;57517;43.562;19.540;2022-08-19T11:46:07;26.08;;;11.18;;
70150;SDS011;57517;43.562;19.540;2022-08-19T11:48:35;23.88;;;11.98;;
70150;SDS011;57517;43.562;19.540;2022-08-19T11:51:06;24.95;;;11.32;;
70150;SDS011;57517;43.562;19.540;2022-08-19T11:53:37;27.40;;;11.80;;
70150;SDS011;57517;43.562;19.540;2022-08-19T11:56:04;23.00;;;12.05;;
70150;SDS011;57517;43.562;19.540;2022-08-19T11:58:30;21.35;;;12.45;;
70150;SDS011;57517;43.562;19.540;2022-08-19T12:00:57;23.52;;;11.63;;
70150;SDS011;57517;43.562;19.540;2022-08-19T12:03:23;24.10;;;11.25;;
70150;SDS011;57517;43.562;19.540;2022-08-19T12:05:49;24.58;;;12.75;;
70150;SDS011;57517;43.562;19.540;2022-08-19T12:08:15;29.15;;;13.18;;
70150;SDS011;57517;43.562;19.540;2022-08-19T12:10:41;22.05;;;11.85;;
70150;SDS011;57517;43.562;19.540;2022-08-19T12:13:11;24.80;;;12.48;;
70150;SDS011;57517;43.562;19.540;2022-08-19T12:15:43;29.55;;;12.75;;
70150;SDS011;57517;43.562;19.540;2022-08-19T12:18:10;22.20;;;13.02;;
70150;SDS011;57517;43.562;19.540;2022-08-19T12:20:39;23.55;;;13.10;;
70150;SDS011;57517;43.562;19.540;2022-08-19T12:23:07;26.92;;;16.33;;
70150;SDS011;57517;43.562;19.540;2022-08-19T12:25:34;33.92;;;18.80;;
70150;SDS011;57517;43.562;19.540;2022-08-19T12:28:01;21.90;;;11.25;;
70150;SDS011;57517;43.562;19.540;2022-08-19T12:30:28;21.80;;;12.73;;
70150;SDS011;57517;43.562;19.540;2022-08-19T12:32:54;25.58;;;12.57;;
70150;SDS011;57517;43.562;19.540;2022-08-19T12:35:20;26.10;;;14.05;;
70150;SDS011;57517;43.562;19.540;2022-08-19T12:37:47;25.52;;;13.30;;
70150;SDS011;57517;43.562;19.540;2022-08-19T12:40:14;33.88;;;16.17;;
70150;SDS011;57517;43.562;19.540;2022-08-19T12:42:41;26.23;;;13.57;;
70150;SDS011;57517;43.562;19.540;2022-08-19T12:45:10;29.58;;;15.48;;
70150;SDS011;57517;43.562;19.540;2022-08-19T12:47:37;27.35;;;15.63;;
70150;SDS011;57517;43.562;19.540;2022-08-19T12:50:03;29.42;;;14.48;;
70150;SDS011;57517;43.562;19.540;2022-08-19T12:52:33;32.03;;;15.50;;
70150;SDS011;57517;43.562;19.540;2022-08-19T12:55:03;26.15;;;13.13;;
70150;SDS011;57517;43.562;19.540;2022-08-19T12:57:31;33.08;;;14.35;;
70150;SDS011;57517;43.562;19.540;2022-08-19T13:00:14;26.88;;;14.45;;
70150;SDS011;57517;43.562;19.540;2022-08-19T13:02:43;28.85;;;14.05;;
70150;SDS011;57517;43.562;19.540;2022-08-19T13:05:12;34.35;;;14.25;;
70150;SDS011;57517;43.562;19.540;2022-08-19T13:07:40;23.48;;;14.35;;
70150;SDS011;57517;43.562;19.540;2022-08-19T13:10:09;30.02;;;15.55;;
70150;SDS011;57517;43.562;19.540;2022-08-19T13:12:37;30.70;;;15.18;;
70150;SDS011;57517;43.562;19.540;2022-08-19T13:15:03;30.83;;;15.20;;
70150;SDS011;57517;43.562;19.540;2022-08-19T13:17:30;25.73;;;14.45;;
70150;SDS011;57517;43.562;19.540;2022-08-19T13:19:56;28.77;;;13.98;;
70150;SDS011;57517;43.562;19.540;2022-08-19T13:22:21;23.73;;;12.98;;
70150;SDS011;57517;43.562;19.540;2022-08-19T13:24:48;23.25;;;14.68;;
70150;SDS011;57517;43.562;19.540;2022-08-19T13:27:14;25.15;;;12.95;;
70150;SDS011;57517;43.562;19.540;2022-08-19T13:29:41;30.00;;;14.77;;
70150;SDS011;57517;43.562;19.540;2022-08-19T13:32:26;26.10;;;12.93;;
70150;SDS011;57517;43.562;19.540;2022-08-19T13:37:35;25.95;;;14.77;;
70150;SDS011;57517;43.562;19.540;2022-08-19T13:40:18;22.77;;;9.40;;
70150;SDS011;57517;43.562;19.540;2022-08-19T13:42:48;20.73;;;9.52;;
70150;SDS011;57517;43.562;19.540;2022-08-19T13:45:17;24.45;;;9.35;;
70150;SDS011;57517;43.562;19.540;2022-08-19T13:47:48;27.63;;;13.35;;
70150;SDS011;57517;43.562;19.540;2022-08-19T13:50:17;25.60;;;16.92;;
70150;SDS011;57517;43.562;19.540;2022-08-19T13:52:46;27.17;;;14.32;;
70150;SDS011;57517;43.562;19.540;2022-08-19T13:55:13;29.00;;;13.63;;
70150;SDS011;57517;43.562;19.540;2022-08-19T13:57:39;26.67;;;15.52;;
70150;SDS011;57517;43.562;19.540;2022-08-19T14:00:10;30.95;;;14.43;;
70150;SDS011;57517;43.562;19.540;2022-08-19T14:02:40;23.92;;;14.85;;
70150;SDS011;57517;43.562;19.540;2022-08-19T14:05:07;30.35;;;14.05;;
70150;SDS011;57517;43.562;19.540;2022-08-19T14:07:34;26.90;;;16.02;;
70150;SDS011;57517;43.562;19.540;2022-08-19T14:10:02;39.10;;;17.92;;
70150;SDS011;57517;43.562;19.540;2022-08-19T14:12:29;29.25;;;14.20;;
70150;SDS011;57517;43.562;19.540;2022-08-19T14:14:56;34.92;;;19.42;;
70150;SDS011;57517;43.562;19.540;2022-08-19T14:17:23;37.05;;;24.70;;
70150;SDS011;57517;43.562;19.540;2022-08-19T14:19:49;45.50;;;30.20;;
70150;SDS011;57517;43.562;19.540;2022-08-19T14:22:21;33.70;;;20.45;;
70150;SDS011;57517;43.562;19.540;2022-08-19T14:24:47;41.65;;;22.92;;
70150;SDS011;57517;43.562;19.540;2022-08-19T14:27:13;35.28;;;20.27;;
70150;SDS011;57517;43.562;19.540;2022-08-19T14:29:39;53.13;;;40.03;;
70150;SDS011;57517;43.562;19.540;2022-08-19T14:32:05;32.47;;;16.33;;
70150;SDS011;57517;43.562;19.540;2022-08-19T14:34:31;32.45;;;17.40;;
70150;SDS011;57517;43.562;19.540;2022-08-19T14:36:59;27.33;;;16.25;;